createdAt,value
2018-12-07T00:00:11.189Z,1011.33
2018-12-07T00:01:11.094Z,1011.31
2018-12-07T00:02:12.041Z,1011.39
2018-12-07T00:03:10.938Z,1011.27
2018-12-07T00:04:10.867Z,1011.30
2018-12-07T00:05:10.760Z,1011.26
2018-12-07T00:06:10.701Z,1011.24
2018-12-07T00:07:10.641Z,1011.23
2018-12-07T00:08:10.527Z,1011.22
2018-12-07T00:09:10.440Z,1011.15
2018-12-07T00:10:10.378Z,1011.17
2018-12-07T00:11:10.264Z,1011.07
2018-12-07T00:12:10.235Z,1011.12
2018-12-07T00:13:10.107Z,1011.11
2018-12-07T00:14:10.037Z,1011.09
2018-12-07T00:15:09.948Z,1011.10
2018-12-07T00:16:09.870Z,1011.10
2018-12-07T00:17:09.806Z,1011.05
2018-12-07T00:18:09.741Z,1011.02
2018-12-07T00:19:09.612Z,1011.06
2018-12-07T00:21:51.637Z,1010.92
2018-12-07T00:22:51.523Z,1010.93
2018-12-07T00:23:51.424Z,1010.94
2018-12-07T00:24:51.354Z,1010.91
2018-12-07T00:25:51.265Z,1010.92
2018-12-07T00:26:51.187Z,1010.95
2018-12-07T00:27:51.195Z,1010.93
2018-12-07T00:28:51.021Z,1010.89
2018-12-07T00:29:50.946Z,1010.90
2018-12-07T00:30:50.859Z,1010.85
2018-12-07T00:31:50.773Z,1010.87
2018-12-07T00:32:51.727Z,1010.87
2018-12-07T00:33:50.598Z,1010.87
2018-12-07T00:34:50.525Z,1010.88
2018-12-07T00:35:50.431Z,1010.88
2018-12-07T00:36:50.358Z,1010.76
2018-12-07T00:37:50.307Z,1010.86
2018-12-07T00:40:32.109Z,1010.71
2018-12-07T00:43:14.147Z,1010.79
2018-12-07T00:46:38.126Z,1010.71
2018-12-07T00:47:38.015Z,1010.71
2018-12-07T00:48:37.979Z,1010.69
2018-12-07T00:49:37.853Z,1010.69
2018-12-07T00:53:44.641Z,1010.58
2018-12-07T00:54:44.532Z,1010.51
2018-12-07T00:55:44.432Z,1010.58
2018-12-07T00:56:44.366Z,1010.50
2018-12-07T00:57:44.269Z,1010.52
2018-12-07T00:58:44.205Z,1010.49
2018-12-07T00:59:44.137Z,1010.51
2018-12-07T01:00:44.033Z,1010.51
2018-12-07T01:01:43.939Z,1010.53
2018-12-07T01:02:43.872Z,1010.45
2018-12-07T01:20:55.574Z,1010.28
2018-12-07T01:21:55.475Z,1010.29
2018-12-07T01:22:55.397Z,1010.30
2018-12-07T01:23:55.312Z,1010.29
2018-12-07T01:24:55.269Z,1010.31
2018-12-07T01:25:55.171Z,1010.24
2018-12-07T01:26:55.073Z,1010.28
2018-12-07T01:27:54.965Z,1010.24
2018-12-07T01:28:54.914Z,1010.25
2018-12-07T01:29:54.844Z,1010.18
2018-12-07T01:30:54.723Z,1010.24
2018-12-07T01:31:54.734Z,1010.25
2018-12-07T01:32:54.573Z,1010.24
2018-12-07T01:33:54.477Z,1010.25
2018-12-07T01:34:54.439Z,1010.22
2018-12-07T01:35:54.312Z,1010.24
2018-12-07T01:36:54.286Z,1010.24
2018-12-07T01:37:54.143Z,1010.17
2018-12-07T01:38:54.077Z,1010.24
2018-12-07T01:39:53.982Z,1010.24
2018-12-07T01:40:54.940Z,1010.18
2018-12-07T01:41:53.816Z,1010.22
2018-12-07T01:42:53.752Z,1010.18
2018-12-07T01:43:53.658Z,1010.19
2018-12-07T01:44:53.573Z,1010.17
2018-12-07T01:45:53.511Z,1010.19
2018-12-07T01:46:53.411Z,1010.13
2018-12-07T01:47:53.328Z,1010.18
2018-12-07T01:48:53.248Z,1010.22
2018-12-07T01:49:53.153Z,1010.15
2018-12-07T01:50:54.113Z,1010.16
2018-12-07T01:51:53.002Z,1010.16
2018-12-07T01:52:52.933Z,1010.14
2018-12-07T01:53:52.824Z,1010.07
2018-12-07T01:54:52.744Z,1010.07
2018-12-07T01:55:52.694Z,1010.04
2018-12-07T01:58:34.610Z,1010.03
2018-12-07T01:59:34.556Z,1009.98
2018-12-07T02:00:34.454Z,1009.99
2018-12-07T02:01:34.415Z,1009.99
2018-12-07T02:02:34.289Z,1010.04
2018-12-07T02:03:34.227Z,1010.06
2018-12-07T02:04:34.116Z,1010.03
2018-12-07T02:05:34.055Z,1009.98
2018-12-07T02:06:33.997Z,1010.02
2018-12-07T02:07:33.882Z,1010.02
2018-12-07T02:08:33.792Z,1010.00
2018-12-07T02:11:15.653Z,1009.92
2018-12-07T02:12:15.557Z,1009.90
2018-12-07T02:13:15.458Z,1009.95
2018-12-07T02:14:15.375Z,1009.88
2018-12-07T02:15:15.276Z,1009.83
2018-12-07T02:16:15.264Z,1009.84
2018-12-07T02:17:15.127Z,1009.81
2018-12-07T02:18:16.088Z,1009.80
2018-12-07T02:19:14.977Z,1009.80
2018-12-07T02:20:14.890Z,1009.80
2018-12-07T02:21:14.798Z,1009.79
2018-12-07T02:22:14.750Z,1009.75
2018-12-07T02:23:14.638Z,1009.77
2018-12-07T02:25:56.646Z,1009.74
2018-12-07T02:27:17.567Z,1009.69
2018-12-07T02:27:56.472Z,1009.66
2018-12-07T02:28:56.383Z,1009.68
2018-12-07T02:29:56.291Z,1009.68
2018-12-07T02:30:56.231Z,1009.70
2018-12-07T02:31:56.127Z,1009.63
2018-12-07T02:32:56.083Z,1009.63
2018-12-07T02:33:55.955Z,1009.60
2018-12-07T02:34:55.909Z,1009.62
2018-12-07T02:35:55.810Z,1009.64
2018-12-07T02:38:37.668Z,1009.57
2018-12-07T02:41:19.650Z,1009.60
2018-12-07T02:42:19.551Z,1009.59
2018-12-07T02:43:19.502Z,1009.54
2018-12-07T02:46:01.653Z,1009.55
2018-12-07T02:47:01.558Z,1009.51
2018-12-07T02:48:01.495Z,1009.52
2018-12-07T02:50:43.667Z,1009.45
2018-12-07T03:09:52.796Z,1009.23
2018-12-07T03:10:52.692Z,1009.19
2018-12-07T03:11:52.615Z,1009.16
2018-12-07T03:12:52.551Z,1009.15
2018-12-07T03:13:52.468Z,1009.20
2018-12-07T03:14:54.387Z,1009.11
2018-12-07T03:15:52.309Z,1009.13
2018-12-07T03:16:52.200Z,1009.10
2018-12-07T03:17:52.105Z,1009.08
2018-12-07T03:18:52.067Z,1009.05
2018-12-07T03:19:51.945Z,1009.13
2018-12-07T03:20:51.892Z,1009.05
2018-12-07T03:21:51.777Z,1009.05
2018-12-07T03:22:51.701Z,1009.10
2018-12-07T03:23:51.657Z,1009.01
2018-12-07T03:24:51.530Z,1009.01
2018-12-07T03:25:51.484Z,1009.05
2018-12-07T03:26:51.399Z,1008.99
2018-12-07T03:27:51.274Z,1009.00
2018-12-07T03:28:51.213Z,1008.96
2018-12-07T03:29:51.139Z,1008.98
2018-12-07T03:30:51.094Z,1008.95
2018-12-07T03:31:50.963Z,1008.95
2018-12-07T03:32:50.886Z,1008.96
2018-12-07T03:33:50.787Z,1008.94
2018-12-07T03:34:51.754Z,1008.87
2018-12-07T03:35:50.631Z,1008.92
2018-12-07T03:36:50.551Z,1008.87
2018-12-07T03:37:50.458Z,1008.85
2018-12-07T03:38:50.415Z,1008.83
2018-12-07T03:39:50.314Z,1008.81
2018-12-07T03:40:50.276Z,1008.82
2018-12-07T03:41:50.129Z,1008.80
2018-12-07T03:42:50.047Z,1008.80
2018-12-07T03:43:49.950Z,1008.76
2018-12-07T03:44:49.913Z,1008.82
2018-12-07T03:45:49.789Z,1008.77
2018-12-07T03:46:49.712Z,1008.80
2018-12-07T03:47:49.622Z,1008.72
2018-12-07T03:48:49.552Z,1008.72
2018-12-07T03:49:49.495Z,1008.67
2018-12-07T03:50:49.480Z,1008.73
2018-12-07T03:51:49.325Z,1008.66
2018-12-07T03:54:31.147Z,1008.63
2018-12-07T03:55:31.113Z,1008.62
2018-12-07T03:56:30.994Z,1008.58
2018-12-07T03:59:13.138Z,1008.58
2018-12-07T04:00:13.116Z,1008.60
2018-12-07T04:01:12.994Z,1008.52
2018-12-07T04:02:12.920Z,1008.54
2018-12-07T04:03:12.818Z,1008.50
2018-12-07T04:04:12.750Z,1008.47
2018-12-07T04:05:12.644Z,1008.48
2018-12-07T04:06:12.608Z,1008.49
2018-12-07T04:07:12.480Z,1008.41
2018-12-07T04:08:12.418Z,1008.44
2018-12-07T04:09:12.328Z,1008.46
2018-12-07T04:10:12.280Z,1008.43
2018-12-07T04:11:12.158Z,1008.42
2018-12-07T04:13:54.209Z,1008.32
2018-12-07T04:14:54.081Z,1008.38
2018-12-07T04:15:54.039Z,1008.32
2018-12-07T04:16:53.916Z,1008.33
2018-12-07T04:17:53.845Z,1008.30
2018-12-07T04:18:54.140Z,1008.31
2018-12-07T04:19:53.670Z,1008.25
2018-12-07T04:20:53.619Z,1008.34
2018-12-07T04:21:53.485Z,1008.26
2018-12-07T04:22:53.425Z,1008.27
2018-12-07T04:23:53.332Z,1008.30
2018-12-07T04:24:53.252Z,1008.24
2018-12-07T04:25:53.191Z,1008.26
2018-12-07T04:26:53.123Z,1008.26
2018-12-07T04:27:53.016Z,1008.22
2018-12-07T04:28:52.924Z,1008.29
2018-12-07T04:29:52.825Z,1008.25
2018-12-07T04:32:34.857Z,1008.25
2018-12-07T04:33:34.573Z,1008.25
2018-12-07T04:34:34.488Z,1008.23
2018-12-07T04:35:34.415Z,1008.23
2018-12-07T04:36:34.343Z,1008.18
2018-12-07T04:37:34.281Z,1008.23
2018-12-07T04:38:34.184Z,1008.18
2018-12-07T04:39:34.098Z,1008.18
2018-12-07T04:40:33.992Z,1008.16
2018-12-07T04:41:33.970Z,1008.14
2018-12-07T04:42:33.843Z,1008.17
2018-12-07T04:43:33.743Z,1008.12
2018-12-07T04:44:33.670Z,1008.16
2018-12-07T04:47:15.693Z,1008.10
2018-12-07T04:48:17.609Z,1008.12
2018-12-07T04:49:15.492Z,1008.11
2018-12-07T04:51:57.655Z,1008.05
2018-12-07T04:52:57.597Z,1008.05
2018-12-07T04:53:57.527Z,1007.97
2018-12-07T04:54:57.425Z,1008.00
2018-12-07T04:55:57.343Z,1007.94
2018-12-07T04:56:57.257Z,1007.97
2018-12-07T04:57:57.192Z,1007.97
2018-12-07T04:58:57.091Z,1007.97
2018-12-07T04:59:57.000Z,1007.96
2018-12-07T05:00:56.925Z,1007.96
2018-12-07T05:01:56.835Z,1007.90
2018-12-07T05:02:56.861Z,1007.95
2018-12-07T05:03:56.660Z,1007.89
2018-12-07T05:04:56.593Z,1007.87
2018-12-07T05:05:56.497Z,1007.86
2018-12-07T05:06:56.413Z,1007.85
2018-12-07T05:07:56.331Z,1007.82
2018-12-07T05:08:57.312Z,1007.78
2018-12-07T05:09:56.164Z,1007.83
2018-12-07T05:10:56.090Z,1007.83
2018-12-07T05:11:55.991Z,1007.77
2018-12-07T05:12:55.982Z,1007.78
2018-12-07T05:13:55.865Z,1007.76
2018-12-07T05:14:55.749Z,1007.72
2018-12-07T05:15:55.676Z,1007.66
2018-12-07T05:16:55.608Z,1007.68
2018-12-07T05:17:55.501Z,1007.68
2018-12-07T05:18:55.600Z,1007.64
2018-12-07T05:19:55.360Z,1007.65
2018-12-07T05:20:55.373Z,1007.61
2018-12-07T05:21:55.172Z,1007.63
2018-12-07T05:22:55.179Z,1007.57
2018-12-07T05:23:55.077Z,1007.61
2018-12-07T05:24:54.981Z,1007.56
2018-12-07T05:25:54.853Z,1007.58
2018-12-07T05:26:54.754Z,1007.56
2018-12-07T05:27:54.671Z,1007.53
2018-12-07T05:28:54.598Z,1007.50
2018-12-07T05:29:54.601Z,1007.47
2018-12-07T05:30:54.436Z,1007.50
2018-12-07T05:31:54.372Z,1007.46
2018-12-07T05:32:54.266Z,1007.46
2018-12-07T05:33:54.184Z,1007.47
2018-12-07T05:34:54.138Z,1007.46
2018-12-07T05:35:54.008Z,1007.41
2018-12-07T05:36:54.071Z,1007.44
2018-12-07T05:37:53.885Z,1007.47
2018-12-07T05:38:53.836Z,1007.44
2018-12-07T05:39:53.710Z,1007.40
2018-12-07T05:40:53.662Z,1007.41
2018-12-07T05:41:53.521Z,1007.44
2018-12-07T05:42:53.570Z,1007.40
2018-12-07T05:43:53.345Z,1007.37
2018-12-07T05:44:53.451Z,1007.34
2018-12-07T05:45:53.184Z,1007.37
2018-12-07T05:46:53.111Z,1007.37
2018-12-07T05:47:53.015Z,1007.38
2018-12-07T05:50:35.201Z,1007.34
2018-12-07T05:51:35.090Z,1007.32
2018-12-07T05:52:35.007Z,1007.31
2018-12-07T05:53:34.930Z,1007.27
2018-12-07T05:54:34.836Z,1007.20
2018-12-07T05:55:35.804Z,1007.19
2018-12-07T05:56:34.669Z,1007.18
2018-12-07T05:57:34.592Z,1007.16
2018-12-07T05:58:34.513Z,1007.13
2018-12-07T05:59:34.456Z,1007.10
2018-12-07T06:00:34.364Z,1007.08
2018-12-07T06:03:16.212Z,1007.11
2018-12-07T06:05:58.210Z,1007.07
2018-12-07T06:08:40.180Z,1006.99
2018-12-07T06:11:22.210Z,1007.00
2018-12-07T06:14:48.176Z,1006.91
2018-12-07T06:15:48.161Z,1006.85
2018-12-07T06:16:48.002Z,1006.88
2018-12-07T06:17:47.954Z,1006.85
2018-12-07T06:18:47.849Z,1006.87
2018-12-07T06:19:47.759Z,1006.83
2018-12-07T06:20:47.670Z,1006.84
2018-12-07T06:21:47.642Z,1006.85
2018-12-07T06:22:47.517Z,1006.86
2018-12-07T06:23:47.489Z,1006.84
2018-12-07T06:24:47.349Z,1006.84
2018-12-07T06:25:47.262Z,1006.82
2018-12-07T06:26:47.172Z,1006.78
2018-12-07T06:27:47.172Z,1006.80
2018-12-07T06:28:47.010Z,1006.82
2018-12-07T06:31:29.210Z,1006.78
2018-12-07T06:32:35.899Z,1006.75
2018-12-07T06:33:29.018Z,1006.75
2018-12-07T06:34:28.927Z,1006.75
2018-12-07T06:35:28.862Z,1006.76
2018-12-07T06:36:28.770Z,1006.74
2018-12-07T06:37:29.719Z,1006.78
2018-12-07T06:38:28.592Z,1006.70
2018-12-07T06:39:28.550Z,1006.69
2018-12-07T06:40:28.435Z,1006.75
2018-12-07T06:41:28.348Z,1006.72
2018-12-07T06:42:28.304Z,1006.71
2018-12-07T06:43:28.268Z,1006.71
2018-12-07T06:44:28.102Z,1006.67
2018-12-07T06:45:28.030Z,1006.70
2018-12-07T06:46:27.938Z,1006.64
2018-12-07T06:47:28.896Z,1006.63
2018-12-07T06:48:27.772Z,1006.63
2018-12-07T06:49:27.691Z,1006.63
2018-12-07T06:50:27.605Z,1006.60
2018-12-07T06:51:27.538Z,1006.57
2018-12-07T06:52:27.462Z,1006.61
2018-12-07T06:53:28.386Z,1006.66
2018-12-07T06:54:27.285Z,1006.58
2018-12-07T06:57:09.190Z,1006.62
2018-12-07T06:58:09.146Z,1006.55
2018-12-07T06:59:09.017Z,1006.53
2018-12-07T07:00:08.978Z,1006.50
2018-12-07T07:01:08.844Z,1006.48
2018-12-07T07:02:08.785Z,1006.47
2018-12-07T07:03:08.723Z,1006.47
2018-12-07T07:04:08.600Z,1006.40
2018-12-07T07:05:08.552Z,1006.42
2018-12-07T07:06:08.472Z,1006.36
2018-12-07T07:07:08.359Z,1006.38
2018-12-07T07:08:08.310Z,1006.36
2018-12-07T07:09:08.182Z,1006.37
2018-12-07T07:10:08.117Z,1006.40
2018-12-07T07:11:08.033Z,1006.36
2018-12-07T07:12:07.960Z,1006.37
2018-12-07T07:13:07.854Z,1006.37
2018-12-07T07:14:07.836Z,1006.29
2018-12-07T07:15:07.687Z,1006.35
2018-12-07T07:16:07.622Z,1006.33
2018-12-07T07:17:07.518Z,1006.31
2018-12-07T07:18:07.452Z,1006.27
2018-12-07T07:19:07.400Z,1006.30
2018-12-07T07:20:07.273Z,1006.29
2018-12-07T07:21:07.189Z,1006.23
2018-12-07T07:22:07.117Z,1006.26
2018-12-07T07:23:07.049Z,1006.28
2018-12-07T07:24:06.979Z,1006.23
2018-12-07T07:25:06.853Z,1006.17
2018-12-07T07:26:06.787Z,1006.19
2018-12-07T07:27:06.689Z,1006.20
2018-12-07T07:28:06.641Z,1006.18
2018-12-07T07:29:06.560Z,1006.21
2018-12-07T07:30:06.463Z,1006.19
2018-12-07T07:31:06.366Z,1006.20
2018-12-07T07:32:06.303Z,1006.15
2018-12-07T07:33:06.233Z,1006.12
2018-12-07T07:34:06.179Z,1006.16
2018-12-07T07:35:06.047Z,1006.15
2018-12-07T07:36:05.957Z,1006.09
2018-12-07T07:37:05.866Z,1006.09
2018-12-07T07:38:05.807Z,1006.08
2018-12-07T07:39:05.703Z,1006.10
2018-12-07T07:40:06.657Z,1006.10
2018-12-07T07:41:05.561Z,1006.11
2018-12-07T07:42:05.517Z,1006.08
2018-12-07T07:43:05.371Z,1006.08
2018-12-07T07:44:05.307Z,1006.01
2018-12-07T07:45:05.254Z,1006.04
2018-12-07T07:46:05.162Z,1006.09
2018-12-07T07:47:05.051Z,1006.04
2018-12-07T07:49:47.193Z,1006.04
2018-12-07T07:50:47.151Z,1005.97
2018-12-07T07:51:47.030Z,1006.00
2018-12-07T07:52:46.957Z,1005.96
2018-12-07T07:53:46.866Z,1005.96
2018-12-07T07:56:28.725Z,1005.92
2018-12-07T07:57:28.630Z,1005.92
2018-12-07T07:58:28.567Z,1005.95
2018-12-07T07:59:28.459Z,1005.91
2018-12-07T08:00:28.366Z,1005.87
2018-12-07T08:01:28.353Z,1005.93
2018-12-07T08:02:29.214Z,1005.88
2018-12-07T08:03:28.124Z,1005.90
2018-12-07T08:04:28.035Z,1005.83
2018-12-07T08:05:27.953Z,1005.88
2018-12-07T08:06:27.888Z,1005.89
2018-12-07T08:07:27.798Z,1005.89
2018-12-07T08:08:27.698Z,1005.89
2018-12-07T08:09:27.635Z,1005.81
2018-12-07T08:10:27.548Z,1005.87
2018-12-07T08:11:28.536Z,1005.85
2018-12-07T08:12:27.538Z,1005.83
2018-12-07T08:13:27.518Z,1005.86
2018-12-07T08:14:27.200Z,1005.81
2018-12-07T08:15:27.129Z,1005.81
2018-12-07T08:16:27.068Z,1005.77
2018-12-07T08:17:26.963Z,1005.79
2018-12-07T08:18:26.889Z,1005.71
2018-12-07T08:19:26.801Z,1005.70
2018-12-07T08:20:26.706Z,1005.76
2018-12-07T08:21:26.636Z,1005.72
2018-12-07T08:22:26.572Z,1005.67
2018-12-07T08:25:08.705Z,1005.70
2018-12-07T08:26:29.623Z,1005.69
2018-12-07T08:27:08.602Z,1005.71
2018-12-07T08:29:52.718Z,1005.71
2018-12-07T08:30:52.660Z,1005.71
2018-12-07T08:31:52.559Z,1005.69
2018-12-07T08:32:52.527Z,1005.70
2018-12-07T08:33:52.386Z,1005.72
2018-12-07T08:34:53.851Z,1005.68
2018-12-07T08:35:52.590Z,1005.70
2018-12-07T08:36:54.531Z,1005.62
2018-12-07T08:37:52.123Z,1005.62
2018-12-07T08:38:51.977Z,1005.62
2018-12-07T08:39:52.271Z,1005.51
2018-12-07T08:40:52.229Z,1005.57
2018-12-07T08:41:51.713Z,1005.54
2018-12-07T08:42:51.632Z,1005.51
2018-12-07T08:43:51.584Z,1005.54
2018-12-07T08:44:51.490Z,1005.51
2018-12-07T08:45:51.413Z,1005.46
2018-12-07T08:46:51.331Z,1005.53
2018-12-07T08:47:51.626Z,1005.46
2018-12-07T08:48:52.159Z,1005.39
2018-12-07T08:49:51.075Z,1005.36
2018-12-07T08:50:50.976Z,1005.36
2018-12-07T08:51:50.882Z,1005.37
2018-12-07T08:54:39.206Z,1005.33
2018-12-07T08:56:00.106Z,1005.29
2018-12-07T08:56:39.040Z,1005.32
2018-12-07T08:57:38.970Z,1005.22
2018-12-07T08:58:38.913Z,1005.17
2018-12-07T08:59:38.801Z,1005.29
2018-12-07T09:23:09.742Z,1004.92
2018-12-07T09:24:09.623Z,1004.96
2018-12-07T09:25:09.550Z,1004.97
2018-12-07T09:26:09.453Z,1004.86
2018-12-07T09:27:09.366Z,1004.92
2018-12-07T09:28:09.289Z,1004.84
2018-12-07T09:29:09.257Z,1004.86
2018-12-07T09:30:09.155Z,1004.85
2018-12-07T09:31:09.047Z,1004.78
2018-12-07T09:32:08.960Z,1004.88
2018-12-07T09:33:08.906Z,1004.78
2018-12-07T09:34:08.790Z,1004.65
2018-12-07T09:35:08.750Z,1004.68
2018-12-07T09:36:08.772Z,1004.73
2018-12-07T09:37:08.552Z,1004.67
2018-12-07T09:38:13.140Z,1004.67
2018-12-07T09:39:08.392Z,1004.62
2018-12-07T09:40:08.359Z,1004.63
2018-12-07T09:41:08.210Z,1004.59
2018-12-07T09:42:08.125Z,1004.48
2018-12-07T09:43:08.059Z,1004.50
2018-12-07T09:44:07.967Z,1004.48
2018-12-07T09:45:07.889Z,1004.47
2018-12-07T09:46:07.837Z,1004.41
2018-12-07T09:48:50.144Z,1004.30
2018-12-07T09:49:49.656Z,1004.31
2018-12-07T09:50:49.640Z,1004.30
2018-12-07T09:53:31.729Z,1004.37
2018-12-07T09:56:13.766Z,1004.21
2018-12-07T09:57:13.654Z,1004.22
2018-12-07T09:58:13.576Z,1004.14
2018-12-07T10:00:55.723Z,1004.15
2018-12-07T10:01:55.687Z,1004.07
2018-12-07T10:17:13.797Z,1003.77
2018-12-07T10:18:13.651Z,1003.81
2018-12-07T10:20:55.749Z,1003.73
2018-12-07T10:21:55.666Z,1003.70
2018-12-07T10:22:55.605Z,1003.66
2018-12-07T10:23:55.532Z,1003.64
2018-12-07T10:24:55.413Z,1003.58
2018-12-07T10:25:55.400Z,1003.57
2018-12-07T10:26:55.236Z,1003.50
2018-12-07T10:49:27.091Z,1003.11
2018-12-07T10:50:26.979Z,1003.07
2018-12-07T10:51:26.906Z,1002.99
2018-12-07T10:52:26.791Z,1002.97
2018-12-07T10:53:26.765Z,1003.03
2018-12-07T10:54:26.668Z,1002.96
2018-12-07T10:57:08.734Z,1002.87
2018-12-07T10:58:08.664Z,1002.90
2018-12-07T10:59:08.611Z,1002.90
2018-12-07T11:00:08.500Z,1002.86
2018-12-07T11:01:08.408Z,1002.77
2018-12-07T11:02:08.341Z,1002.79
2018-12-07T11:03:08.242Z,1002.78
2018-12-07T11:04:08.179Z,1002.76
2018-12-07T11:05:08.126Z,1002.70
2018-12-07T11:06:10.091Z,1002.69
2018-12-07T11:07:07.917Z,1002.64
2018-12-07T11:08:08.063Z,1002.64
2018-12-07T11:09:07.744Z,1002.60
2018-12-07T11:10:07.728Z,1002.54
2018-12-07T11:11:07.588Z,1002.46
2018-12-07T11:12:07.517Z,1002.49
2018-12-07T11:13:07.424Z,1002.40
2018-12-07T11:14:07.343Z,1002.38
2018-12-07T11:15:07.336Z,1002.38
2018-12-07T11:16:07.200Z,1002.38
2018-12-07T11:17:07.103Z,1002.33
2018-12-07T11:18:07.022Z,1002.26
2018-12-07T11:19:07.018Z,1002.21
2018-12-07T11:20:07.889Z,1002.16
2018-12-07T11:21:06.826Z,1002.19
2018-12-07T11:22:06.682Z,1002.18
2018-12-07T11:23:06.720Z,1002.12
2018-12-07T11:24:06.618Z,1002.13
2018-12-07T11:25:06.613Z,1002.21
2018-12-07T11:26:06.426Z,1002.12
2018-12-07T11:27:06.823Z,1002.11
2018-12-07T11:28:06.262Z,1002.11
2018-12-07T11:29:06.169Z,1002.02
2018-12-07T11:30:06.049Z,1002.08
2018-12-07T11:31:05.989Z,1001.99
2018-12-07T11:32:06.015Z,1002.04
2018-12-07T11:33:05.828Z,1001.99
2018-12-07T11:34:05.701Z,1001.97
2018-12-07T11:35:05.630Z,1001.95
2018-12-07T11:36:08.209Z,1001.87
2018-12-07T11:37:05.448Z,1001.86
2018-12-07T11:38:05.387Z,1001.83
2018-12-07T11:39:05.316Z,1001.81
2018-12-07T11:40:05.253Z,1001.72
2018-12-07T11:41:05.150Z,1001.69
2018-12-07T11:42:05.048Z,1001.61
2018-12-07T11:43:04.958Z,1001.54
2018-12-07T11:44:04.886Z,1001.47
2018-12-07T11:45:04.790Z,1001.46
2018-12-07T11:46:04.765Z,1001.41
2018-12-07T11:47:04.622Z,1001.40
2018-12-07T11:48:04.549Z,1001.36
2018-12-07T11:49:04.458Z,1001.34
2018-12-07T11:50:04.414Z,1001.28
2018-12-07T11:51:04.354Z,1001.24
2018-12-07T11:53:46.308Z,1001.13
2018-12-07T11:54:46.220Z,1001.02
2018-12-07T11:55:46.153Z,1000.99
2018-12-07T11:56:46.043Z,1000.94
2018-12-07T11:57:46.031Z,1000.93
2018-12-07T12:00:27.773Z,1000.89
2018-12-07T12:01:27.729Z,1000.78
2018-12-07T12:02:27.626Z,1000.72
2018-12-07T12:03:27.537Z,1000.72
2018-12-07T12:04:27.415Z,1000.71
2018-12-07T12:05:27.344Z,1000.71
2018-12-07T12:06:27.320Z,1000.55
2018-12-07T12:07:27.227Z,1000.68
2018-12-07T12:08:27.103Z,1000.58
2018-12-07T12:09:27.042Z,1000.54
2018-12-07T12:10:27.040Z,1000.47
2018-12-07T12:11:26.904Z,1000.46
2018-12-07T12:12:26.805Z,1000.38
2018-12-07T12:13:26.696Z,1000.31
2018-12-07T12:14:26.597Z,1000.25
2018-12-07T12:17:08.791Z,1000.21
2018-12-07T12:18:08.777Z,1000.19
2018-12-07T12:19:08.602Z,1000.18
2018-12-07T12:21:50.755Z,1000.10
2018-12-07T12:22:52.274Z,1000.13
2018-12-07T12:23:53.801Z,1000.11
2018-12-07T12:24:50.526Z,1000.03
2018-12-07T12:25:50.433Z,1000.01
2018-12-07T12:26:50.369Z,999.98
2018-12-07T12:27:50.283Z,999.87
2018-12-07T12:28:50.210Z,999.79
2018-12-07T12:29:50.104Z,999.79
2018-12-07T12:30:50.034Z,999.75
2018-12-07T12:31:49.961Z,999.68
2018-12-07T12:32:49.874Z,999.62
2018-12-07T12:33:49.927Z,999.58
2018-12-07T12:34:49.726Z,999.52
2018-12-07T12:35:49.604Z,999.47
2018-12-07T12:36:49.550Z,999.50
2018-12-07T12:37:49.455Z,999.46
2018-12-07T12:38:50.404Z,999.41
2018-12-07T12:39:49.278Z,999.45
2018-12-07T12:40:49.275Z,999.29
2018-12-07T12:41:49.131Z,999.34
2018-12-07T12:42:49.061Z,999.30
2018-12-07T12:43:49.047Z,999.22
2018-12-07T12:44:48.955Z,999.22
2018-12-07T12:45:48.792Z,999.28
2018-12-07T12:46:48.717Z,999.16
2018-12-07T12:47:48.732Z,999.15
2018-12-07T12:48:48.587Z,999.11
2018-12-07T12:49:48.480Z,999.03
2018-12-07T12:50:48.420Z,999.01
2018-12-07T12:51:48.307Z,998.96
2018-12-07T12:52:48.237Z,998.95
2018-12-07T12:53:48.143Z,998.82
2018-12-07T12:54:48.098Z,998.77
2018-12-07T12:55:48.011Z,998.71
2018-12-07T12:56:48.014Z,998.76
2018-12-07T12:57:47.820Z,998.83
2018-12-07T12:58:47.758Z,998.75
2018-12-07T12:59:47.655Z,998.71
2018-12-07T13:00:47.639Z,998.66
2018-12-07T13:01:47.549Z,998.71
2018-12-07T13:02:47.450Z,998.69
2018-12-07T13:03:47.395Z,998.66
2018-12-07T13:04:47.590Z,998.70
2018-12-07T13:05:47.572Z,998.60
2018-12-07T13:06:47.377Z,998.56
2018-12-07T13:07:46.991Z,998.53
2018-12-07T13:08:46.907Z,998.55
2018-12-07T13:09:46.824Z,998.47
2018-12-07T13:10:46.763Z,998.50
2018-12-07T13:11:46.705Z,998.53
2018-12-07T13:12:46.583Z,998.47
2018-12-07T13:13:46.498Z,998.49
2018-12-07T13:14:46.441Z,998.43
2018-12-07T13:15:46.337Z,998.55
2018-12-07T13:16:46.411Z,998.35
2018-12-07T13:17:46.191Z,998.31
2018-12-07T13:18:46.107Z,998.26
2018-12-07T13:19:45.995Z,998.26
2018-12-07T13:20:45.966Z,998.27
2018-12-07T13:21:45.889Z,998.35
2018-12-07T13:22:45.761Z,998.39
2018-12-07T13:23:45.674Z,998.37
2018-12-07T13:24:45.595Z,998.33
2018-12-07T13:25:45.512Z,998.33
2018-12-07T13:26:46.394Z,998.30
2018-12-07T13:27:45.406Z,998.28
2018-12-07T13:28:45.476Z,998.23
2018-12-07T13:29:45.198Z,998.17
2018-12-07T13:30:47.723Z,998.20
2018-12-07T13:31:45.060Z,998.24
2018-12-07T13:32:44.961Z,998.27
2018-12-07T13:33:44.866Z,998.20
2018-12-07T13:34:45.141Z,998.25
2018-12-07T13:35:45.368Z,998.28
2018-12-07T13:36:44.653Z,998.21
2018-12-07T13:37:44.570Z,998.19
2018-12-07T13:38:44.474Z,998.13
2018-12-07T13:39:44.364Z,998.26
2018-12-07T13:40:44.543Z,998.22
2018-12-07T13:41:50.309Z,998.31
2018-12-07T13:42:44.226Z,998.20
2018-12-07T13:43:44.235Z,998.17
2018-12-07T13:44:44.018Z,998.11
2018-12-07T13:45:44.075Z,998.12
2018-12-07T13:46:43.965Z,998.13
2018-12-07T13:47:43.841Z,998.19
2018-12-07T13:48:43.776Z,998.13
2018-12-07T13:49:43.886Z,998.12
2018-12-07T13:50:43.496Z,998.11
2018-12-07T13:51:43.565Z,998.06
2018-12-07T13:52:43.430Z,998.01
2018-12-07T13:53:43.402Z,998.13
2018-12-07T13:56:25.459Z,998.09
2018-12-07T13:57:25.347Z,997.87
2018-12-07T13:58:25.257Z,997.91
2018-12-07T13:59:25.294Z,997.91
2018-12-07T14:00:24.986Z,997.79
2018-12-07T14:01:24.909Z,998.06
2018-12-07T14:02:24.969Z,997.95
2018-12-07T14:03:24.865Z,997.98
2018-12-07T14:04:24.719Z,997.93
2018-12-07T14:05:32.006Z,997.91
2018-12-07T14:06:24.517Z,997.84
2018-12-07T14:09:06.411Z,997.70
2018-12-07T14:10:06.246Z,997.74
2018-12-07T14:11:06.806Z,997.63
2018-12-07T14:12:06.164Z,997.73
2018-12-07T14:14:30.877Z,997.62
2018-12-07T14:15:30.895Z,997.54
2018-12-07T14:16:30.721Z,997.59
2018-12-07T14:17:30.599Z,997.65
2018-12-07T14:18:30.451Z,997.57
2018-12-07T14:19:30.551Z,997.52
2018-12-07T14:20:30.416Z,997.67
2018-12-07T14:37:44.276Z,997.09
2018-12-07T14:38:44.040Z,997.04
2018-12-07T14:39:44.130Z,997.03
2018-12-07T14:40:44.076Z,997.05
2018-12-07T14:41:43.763Z,997.10
2018-12-07T14:42:43.841Z,997.01
2018-12-07T14:43:43.729Z,996.99
2018-12-07T14:44:43.491Z,996.95
2018-12-07T14:45:43.440Z,996.91
2018-12-07T14:46:43.339Z,996.82
2018-12-07T14:47:43.460Z,996.85
2018-12-07T14:48:43.236Z,996.78
2018-12-07T14:49:43.282Z,996.77
2018-12-07T14:51:43.064Z,996.70
2018-12-07T14:52:42.838Z,996.76
2018-12-07T14:53:42.796Z,996.67
2018-12-07T14:54:42.805Z,996.60
2018-12-07T14:55:44.363Z,996.62
2018-12-07T14:56:42.660Z,996.74
2018-12-07T14:57:42.476Z,996.64
2018-12-07T14:58:43.330Z,996.54
2018-12-07T14:59:42.273Z,996.69
2018-12-07T15:00:42.178Z,996.51
2018-12-07T15:01:42.389Z,996.53
2018-12-07T15:02:42.924Z,996.45
2018-12-07T15:03:42.873Z,996.49
2018-12-07T15:04:41.981Z,996.42
2018-12-07T15:05:41.815Z,996.42
2018-12-07T15:06:41.770Z,996.41
2018-12-07T15:07:41.611Z,996.53
2018-12-07T15:08:41.704Z,996.43
2018-12-07T15:09:41.456Z,996.45
2018-12-07T15:10:41.495Z,996.41
2018-12-07T15:11:41.473Z,996.45
2018-12-07T15:12:41.342Z,996.39
2018-12-07T15:13:41.319Z,996.31
2018-12-07T15:14:41.092Z,996.28
2018-12-07T15:15:40.985Z,996.27
2018-12-07T15:16:40.895Z,996.26
2018-12-07T15:17:41.037Z,996.21